createdAt,value
2023-02-02T00:00:25.738Z,4.25
2023-02-02T00:02:52.546Z,4.07
2023-02-02T00:05:19.407Z,3.60
2023-02-02T00:07:46.192Z,1.75
2023-02-02T00:10:12.976Z,1.67
2023-02-02T00:12:39.748Z,5.30
2023-02-02T00:15:07.125Z,2.92
2023-02-02T00:17:33.905Z,1.67
2023-02-02T00:20:00.656Z,9.40
2023-02-02T00:22:28.000Z,1.77
2023-02-02T00:24:54.798Z,1.73
2023-02-02T00:27:21.582Z,2.95
2023-02-02T00:29:49.416Z,2.50
2023-02-02T00:32:16.794Z,4.13
2023-02-02T00:34:43.584Z,3.17
2023-02-02T00:37:10.527Z,3.85
2023-02-02T00:39:37.293Z,2.67
2023-02-02T00:42:04.190Z,1.80
2023-02-02T00:44:50.238Z,4.22
2023-02-02T00:47:17.862Z,2.67
2023-02-02T00:49:44.647Z,3.75
2023-02-02T00:54:38.873Z,2.85
2023-02-02T00:57:05.714Z,5.60
2023-02-02T00:59:32.848Z,6.20
2023-02-02T01:02:00.062Z,8.90
2023-02-02T01:04:26.860Z,3.88
2023-02-02T01:06:53.783Z,11.25
2023-02-02T01:09:20.852Z,5.10
2023-02-02T01:11:48.094Z,6.95
2023-02-02T01:14:15.013Z,8.27
2023-02-02T01:16:41.889Z,4.63
2023-02-02T01:19:09.068Z,9.60
2023-02-02T01:21:35.858Z,8.02
2023-02-02T01:24:02.636Z,9.40
2023-02-02T01:26:29.511Z,8.20
2023-02-02T01:28:56.337Z,7.80
2023-02-02T01:31:23.511Z,4.68
2023-02-02T01:33:51.085Z,4.50
2023-02-02T01:38:47.956Z,6.32
2023-02-02T01:41:17.629Z,6.20
2023-02-02T01:43:44.429Z,4.25
2023-02-02T01:46:16.769Z,2.83
2023-02-02T01:49:06.046Z,5.88
2023-02-02T01:51:51.700Z,3.53
2023-02-02T01:54:28.007Z,3.15
2023-02-02T01:57:26.017Z,5.93
2023-02-02T01:59:54.682Z,5.05
2023-02-02T02:02:21.668Z,3.97
2023-02-02T02:04:50.199Z,3.88
2023-02-02T02:07:17.125Z,5.30
2023-02-02T02:09:44.010Z,3.40
2023-02-02T02:12:14.362Z,2.67
2023-02-02T02:15:03.902Z,3.15
2023-02-02T02:17:55.864Z,3.22
2023-02-02T02:21:00.265Z,3.22
2023-02-02T02:23:58.599Z,4.88
2023-02-02T02:26:34.402Z,3.20
2023-02-02T02:29:35.852Z,3.58
2023-02-02T02:32:07.133Z,11.25
2023-02-02T02:34:59.561Z,4.65
2023-02-02T02:37:38.694Z,4.78
2023-02-02T02:40:17.018Z,6.35
2023-02-02T02:42:48.894Z,7.03
2023-02-02T02:45:17.983Z,12.23
2023-02-02T02:47:45.130Z,10.23
2023-02-02T02:50:12.307Z,6.90
2023-02-02T02:52:40.318Z,12.18
2023-02-02T02:55:10.643Z,16.15
2023-02-02T02:57:49.692Z,4.93
2023-02-02T03:00:42.349Z,5.90
2023-02-02T03:03:17.040Z,12.90
2023-02-02T03:06:12.950Z,11.82
2023-02-02T03:08:47.992Z,10.75
2023-02-02T03:11:16.490Z,8.70
2023-02-02T03:13:43.668Z,4.15
2023-02-02T03:16:11.282Z,8.77
2023-02-02T03:18:38.979Z,6.97
2023-02-02T03:21:05.943Z,8.02
2023-02-02T03:23:33.338Z,12.05
2023-02-02T03:26:00.500Z,8.25
2023-02-02T03:28:28.205Z,4.88
2023-02-02T03:30:56.043Z,14.32
2023-02-02T03:33:23.277Z,6.53
2023-02-02T03:35:50.105Z,10.07
2023-02-02T03:38:16.951Z,8.07
2023-02-02T03:40:43.838Z,4.22
2023-02-02T03:43:10.696Z,11.05
2023-02-02T03:45:40.547Z,8.60
2023-02-02T03:48:07.638Z,4.88
2023-02-02T03:50:34.733Z,2.97
2023-02-02T03:53:01.516Z,4.97
2023-02-02T03:55:28.426Z,4.45
2023-02-02T03:57:55.203Z,3.08
2023-02-02T04:00:22.413Z,3.60
2023-02-02T04:02:49.771Z,6.80
2023-02-02T04:05:16.678Z,4.13
2023-02-02T04:07:43.485Z,3.45
2023-02-02T04:10:10.853Z,1.80
2023-02-02T04:12:37.684Z,2.47
2023-02-02T04:15:05.004Z,3.20
2023-02-02T04:17:31.832Z,5.07
2023-02-02T04:19:58.699Z,1.38
2023-02-02T04:22:26.558Z,1.60
2023-02-02T04:24:53.374Z,3.33
2023-02-02T04:27:20.385Z,1.80
2023-02-02T04:29:47.242Z,2.35
2023-02-02T04:32:18.224Z,4.72
2023-02-02T04:34:45.239Z,2.13
2023-02-02T04:37:12.348Z,4.20
2023-02-02T04:39:39.443Z,2.13
2023-02-02T04:42:06.289Z,2.17
2023-02-02T04:44:33.172Z,7.05
2023-02-02T04:47:00.056Z,4.15
2023-02-02T04:49:26.946Z,4.10
2023-02-02T04:51:53.722Z,3.75
2023-02-02T04:54:20.511Z,4.10
2023-02-02T04:56:47.405Z,3.30
2023-02-02T04:59:14.211Z,4.10
2023-02-02T05:01:41.334Z,6.15
2023-02-02T05:04:08.272Z,6.93
2023-02-02T05:06:35.109Z,9.38
2023-02-02T05:09:02.027Z,8.15
2023-02-02T05:11:28.876Z,10.95
2023-02-02T05:13:55.667Z,13.70
2023-02-02T05:16:23.819Z,17.30
2023-02-02T05:18:56.526Z,24.23
2023-02-02T05:21:23.909Z,18.50
2023-02-02T05:23:50.906Z,15.57
2023-02-02T05:26:22.113Z,15.57
2023-02-02T05:28:49.174Z,14.52
2023-02-02T05:31:16.095Z,13.18
2023-02-02T05:33:43.314Z,16.35
2023-02-02T05:36:10.773Z,19.75
2023-02-02T05:41:04.612Z,8.77
2023-02-02T05:43:33.191Z,13.05
2023-02-02T05:46:00.577Z,20.73
2023-02-02T05:50:57.601Z,10.65
2023-02-02T05:53:24.816Z,12.98
2023-02-02T05:55:51.595Z,11.52
2023-02-02T05:58:18.368Z,20.80
2023-02-02T06:00:45.263Z,20.15
2023-02-02T06:03:12.940Z,15.32
2023-02-02T06:05:39.881Z,13.75
2023-02-02T06:08:06.742Z,22.90
2023-02-02T06:10:33.522Z,25.70
2023-02-02T06:13:00.277Z,10.05
2023-02-02T06:15:28.891Z,15.45
2023-02-02T06:17:55.750Z,18.38
2023-02-02T06:20:22.651Z,8.45
2023-02-02T06:22:49.492Z,15.48
2023-02-02T06:25:16.281Z,13.70
2023-02-02T06:27:46.035Z,9.75
2023-02-02T06:30:13.745Z,24.48
2023-02-02T06:32:40.598Z,10.68
2023-02-02T06:35:08.201Z,7.00
2023-02-02T06:37:35.022Z,15.80
2023-02-02T06:40:01.906Z,18.70
2023-02-02T06:42:28.773Z,14.45
2023-02-02T06:44:55.548Z,13.93
2023-02-02T06:47:22.315Z,23.30
2023-02-02T06:49:49.053Z,16.33
2023-02-02T06:52:15.822Z,16.45
2023-02-02T06:54:42.638Z,13.77
2023-02-02T06:57:09.602Z,10.18
2023-02-02T06:59:36.547Z,13.50
2023-02-02T07:02:03.355Z,19.25
2023-02-02T07:04:30.219Z,14.60
2023-02-02T07:06:57.042Z,17.65
2023-02-02T07:09:23.807Z,11.35
2023-02-02T07:11:50.588Z,11.48
2023-02-02T07:14:17.346Z,7.07
2023-02-02T07:16:44.121Z,9.30
2023-02-02T07:19:10.906Z,12.73
2023-02-02T07:21:37.716Z,12.00
2023-02-02T07:24:06.020Z,9.13
2023-02-02T07:26:35.365Z,9.70
2023-02-02T07:29:04.349Z,15.10
2023-02-02T07:31:31.837Z,13.00
2023-02-02T07:33:59.332Z,20.13
2023-02-02T07:36:26.302Z,13.45
2023-02-02T07:38:54.566Z,18.08
2023-02-02T07:41:22.392Z,13.25
2023-02-02T07:43:50.137Z,14.63
2023-02-02T07:46:18.032Z,11.73
2023-02-02T07:48:45.144Z,16.95
2023-02-02T07:51:14.582Z,10.95
2023-02-02T07:53:46.158Z,9.35
2023-02-02T07:56:22.304Z,11.85
2023-02-02T07:58:51.426Z,14.00
2023-02-02T08:01:20.160Z,27.88
2023-02-02T08:03:47.150Z,10.90
2023-02-02T08:06:26.074Z,14.27
2023-02-02T08:08:52.947Z,12.05
2023-02-02T08:11:21.636Z,16.40
2023-02-02T08:13:50.584Z,15.80
2023-02-02T08:16:17.785Z,10.30
2023-02-02T08:18:45.134Z,19.17
2023-02-02T08:21:13.021Z,14.63
2023-02-02T08:23:41.329Z,8.20
2023-02-02T08:26:28.017Z,12.13
2023-02-02T08:29:04.314Z,8.73
2023-02-02T08:31:34.617Z,9.60
2023-02-02T08:34:01.762Z,15.27
2023-02-02T08:36:30.135Z,12.95
2023-02-02T08:39:03.018Z,12.35
2023-02-02T08:41:30.635Z,16.35
2023-02-02T08:43:57.497Z,10.02
2023-02-02T08:46:24.814Z,10.95
2023-02-02T08:48:51.694Z,11.05
2023-02-02T08:51:19.733Z,10.43
2023-02-02T08:53:47.222Z,11.15
2023-02-02T08:58:53.033Z,10.85
2023-02-02T09:01:23.759Z,11.00
2023-02-02T09:04:02.317Z,10.35
2023-02-02T09:06:38.177Z,10.60
2023-02-02T09:09:07.755Z,12.15
2023-02-02T09:11:35.666Z,12.32
2023-02-02T09:14:03.570Z,10.95
2023-02-02T09:16:30.452Z,9.65
2023-02-02T09:18:57.348Z,8.88
2023-02-02T09:21:24.191Z,7.57
2023-02-02T09:23:53.749Z,8.98
2023-02-02T09:26:26.784Z,8.80
2023-02-02T09:28:57.138Z,12.52
2023-02-02T09:31:24.701Z,11.90
2023-02-02T09:33:51.624Z,8.38
2023-02-02T09:36:20.677Z,13.98
2023-02-02T09:38:49.028Z,9.45
2023-02-02T09:41:34.622Z,9.02
2023-02-02T09:44:19.251Z,6.97
2023-02-02T09:47:16.105Z,7.05
2023-02-02T09:50:01.637Z,7.45
2023-02-02T09:52:40.614Z,9.60
2023-02-02T09:55:15.374Z,8.15
2023-02-02T09:57:52.955Z,7.85
2023-02-02T10:00:31.947Z,7.53
2023-02-02T10:03:04.373Z,11.02
2023-02-02T10:05:47.540Z,7.32
2023-02-02T10:08:34.104Z,7.32
2023-02-02T10:11:14.679Z,7.15
2023-02-02T10:13:43.884Z,8.02
2023-02-02T10:16:17.846Z,8.32
2023-02-02T10:19:04.473Z,8.27
2023-02-02T10:21:59.827Z,7.40
2023-02-02T10:24:29.795Z,7.50
2023-02-02T10:27:19.686Z,7.30
2023-02-02T10:30:03.447Z,7.60
2023-02-02T10:32:41.196Z,9.13
2023-02-02T10:35:25.765Z,9.00
2023-02-02T10:38:09.825Z,7.90
2023-02-02T10:40:37.090Z,8.93
2023-02-02T10:43:29.278Z,8.73
2023-02-02T10:45:57.157Z,7.70
2023-02-02T10:48:35.520Z,9.05
2023-02-02T10:51:11.190Z,10.02
2023-02-02T10:53:39.744Z,8.10
2023-02-02T10:56:11.929Z,11.52
2023-02-02T10:58:50.639Z,8.85
2023-02-02T11:01:18.239Z,9.77
2023-02-02T11:03:45.301Z,8.10
2023-02-02T11:06:31.646Z,8.80
2023-02-02T11:09:03.858Z,13.15
2023-02-02T11:11:41.761Z,10.60
2023-02-02T11:14:08.777Z,9.90
2023-02-02T11:17:03.071Z,9.73
2023-02-02T11:19:32.095Z,9.27
2023-02-02T11:22:02.686Z,9.90
2023-02-02T11:24:47.141Z,10.10
2023-02-02T11:27:33.055Z,11.18
2023-02-02T11:30:11.235Z,10.50
2023-02-02T11:32:38.022Z,13.45
2023-02-02T11:35:15.021Z,15.38
2023-02-02T11:37:57.014Z,13.88
2023-02-02T11:40:28.761Z,18.00
2023-02-02T11:42:58.351Z,9.40
2023-02-02T11:45:42.856Z,14.07
2023-02-02T11:48:22.303Z,10.70
2023-02-02T11:50:54.761Z,9.98
2023-02-02T11:53:39.207Z,9.52
2023-02-02T11:56:17.618Z,15.23
2023-02-02T11:58:49.696Z,9.23
2023-02-02T12:01:23.572Z,11.70
2023-02-02T12:03:52.051Z,13.30
2023-02-02T12:06:19.106Z,15.80
2023-02-02T12:08:46.398Z,22.00
2023-02-02T12:11:34.382Z,10.93
2023-02-02T12:14:12.158Z,16.63
2023-02-02T12:17:20.117Z,19.75
2023-02-02T12:20:01.638Z,9.52
2023-02-02T12:22:44.590Z,20.30
2023-02-02T12:25:14.468Z,10.73
2023-02-02T12:27:50.108Z,15.02
2023-02-02T12:30:43.206Z,19.08
2023-02-02T12:33:12.977Z,8.10
2023-02-02T12:35:58.675Z,7.78
2023-02-02T12:38:57.638Z,10.55
2023-02-02T12:41:44.107Z,8.00
2023-02-02T12:44:28.893Z,13.98
2023-02-02T12:47:19.940Z,15.88
2023-02-02T12:50:15.592Z,11.07
2023-02-02T12:53:23.862Z,9.88
2023-02-02T12:56:24.068Z,11.35
2023-02-02T12:59:36.438Z,10.50
2023-02-02T13:02:06.256Z,13.10
2023-02-02T13:04:52.909Z,11.77
2023-02-02T13:07:44.045Z,12.35
2023-02-02T13:10:39.511Z,18.10
2023-02-02T13:13:13.804Z,16.05
2023-02-02T13:15:44.076Z,10.63
2023-02-02T13:18:37.019Z,19.60
2023-02-02T13:21:16.653Z,11.77
2023-02-02T13:23:50.353Z,11.57
2023-02-02T13:26:21.732Z,11.85
2023-02-02T13:29:11.669Z,13.88
2023-02-02T13:31:57.112Z,11.32
2023-02-02T13:34:40.061Z,13.88
2023-02-02T13:37:18.758Z,16.23
2023-02-02T13:39:53.715Z,9.93
2023-02-02T13:42:57.708Z,14.57
2023-02-02T13:45:47.739Z,14.85
2023-02-02T13:48:47.512Z,9.80
2023-02-02T13:51:45.518Z,10.07
2023-02-02T13:54:37.099Z,11.88
2023-02-02T13:57:40.699Z,17.30
2023-02-02T14:00:22.151Z,13.38
2023-02-02T14:02:52.069Z,10.27
2023-02-02T14:05:26.839Z,21.30
2023-02-02T14:08:00.294Z,8.98
2023-02-02T14:10:31.661Z,14.02
2023-02-02T14:13:06.739Z,7.95
2023-02-02T14:15:43.260Z,13.60
2023-02-02T14:18:10.052Z,10.05
2023-02-02T14:20:44.586Z,9.73
2023-02-02T14:23:50.852Z,13.63
2023-02-02T14:26:38.772Z,16.10
2023-02-02T14:29:31.969Z,10.63
2023-02-02T14:32:01.663Z,9.85
2023-02-02T14:34:39.281Z,10.35
2023-02-02T14:37:24.211Z,12.02
2023-02-02T14:39:54.014Z,16.00
2023-02-02T14:43:07.697Z,13.30
2023-02-02T14:45:42.811Z,8.15
2023-02-02T14:48:16.722Z,7.05
2023-02-02T14:50:54.588Z,9.88
2023-02-02T14:53:35.363Z,10.55
2023-02-02T14:56:08.818Z,10.93
2023-02-02T14:58:45.944Z,8.50
2023-02-02T15:01:22.768Z,5.45
2023-02-02T15:04:16.902Z,6.80
2023-02-02T15:06:44.375Z,6.65
2023-02-02T15:12:01.044Z,7.00
2023-02-02T15:14:35.403Z,13.27
2023-02-02T15:17:06.992Z,8.27
2023-02-02T15:19:40.289Z,6.38
2023-02-02T15:22:31.989Z,7.40
2023-02-02T15:25:03.944Z,7.10
2023-02-02T15:27:31.906Z,9.25
2023-02-02T15:30:06.985Z,6.57
2023-02-02T15:32:35.723Z,6.95
2023-02-02T15:35:07.205Z,10.48
2023-02-02T15:37:41.471Z,11.45
2023-02-02T15:40:15.960Z,10.45
2023-02-02T15:43:01.652Z,16.88
2023-02-02T15:45:28.954Z,18.95
2023-02-02T15:47:57.889Z,15.05
2023-02-02T15:50:25.125Z,22.30
2023-02-02T15:52:53.624Z,13.85
2023-02-02T15:55:22.536Z,12.75
2023-02-02T15:57:54.081Z,17.15
2023-02-02T16:00:33.490Z,12.60
2023-02-02T16:03:10.852Z,14.73
2023-02-02T16:08:14.542Z,12.40
2023-02-02T16:10:41.375Z,12.63
2023-02-02T16:13:17.331Z,12.10
2023-02-02T16:15:59.137Z,13.20
2023-02-02T16:18:25.981Z,14.75
2023-02-02T16:20:54.310Z,13.00
2023-02-02T16:23:51.522Z,13.20
2023-02-02T16:26:22.060Z,14.25
2023-02-02T16:28:48.972Z,14.35
2023-02-02T16:31:16.024Z,18.02
2023-02-02T16:33:44.702Z,14.32
2023-02-02T16:36:25.723Z,12.18
2023-02-02T16:38:54.173Z,13.23
2023-02-02T16:41:35.127Z,12.73
2023-02-02T16:44:30.602Z,14.13
2023-02-02T16:46:58.704Z,16.25
2023-02-02T16:49:26.892Z,13.18
2023-02-02T16:52:13.446Z,14.52
2023-02-02T16:54:45.250Z,14.30
2023-02-02T16:57:28.727Z,14.60
2023-02-02T16:59:59.127Z,13.73
2023-02-02T17:02:30.383Z,18.40
2023-02-02T17:05:04.322Z,14.57
2023-02-02T17:07:32.929Z,16.65
2023-02-02T17:10:13.839Z,12.40
2023-02-02T17:12:40.775Z,13.35
2023-02-02T17:15:16.325Z,12.43
2023-02-02T17:17:50.468Z,12.45
2023-02-02T17:20:18.805Z,14.52
2023-02-02T17:22:49.006Z,13.05
2023-02-02T17:25:27.791Z,11.68
2023-02-02T17:27:55.533Z,11.43
2023-02-02T17:30:22.681Z,10.23
2023-02-02T17:32:49.437Z,10.48
2023-02-02T17:35:24.917Z,6.75
2023-02-02T17:37:52.670Z,12.13
2023-02-02T17:42:50.831Z,10.50
2023-02-02T17:45:34.076Z,10.85
2023-02-02T17:48:01.905Z,12.23
2023-02-02T17:50:30.502Z,10.68
2023-02-02T17:52:57.325Z,10.55
2023-02-02T17:55:30.834Z,7.95
2023-02-02T17:57:57.766Z,11.00
2023-02-02T18:00:27.685Z,9.07
2023-02-02T18:03:06.634Z,11.15
2023-02-02T18:08:00.141Z,10.32
2023-02-02T18:10:29.868Z,11.00
2023-02-02T18:12:57.418Z,9.68
2023-02-02T18:20:20.433Z,9.70
2023-02-02T18:22:48.546Z,9.68
2023-02-02T18:25:15.556Z,9.57
2023-02-02T18:27:42.605Z,8.50
2023-02-02T18:30:10.869Z,6.13
2023-02-02T18:32:39.584Z,6.97
2023-02-02T18:35:07.556Z,7.20
2023-02-02T18:37:35.487Z,7.40
2023-02-02T18:40:02.288Z,7.40
2023-02-02T18:42:34.951Z,6.70
2023-02-02T18:45:02.617Z,7.82
2023-02-02T18:47:29.426Z,6.13
2023-02-02T18:49:56.259Z,7.28
2023-02-02T18:52:23.110Z,5.07
2023-02-02T18:54:50.385Z,6.45
2023-02-02T18:57:17.385Z,5.70
2023-02-02T18:59:44.377Z,5.35
2023-02-02T19:02:15.802Z,5.60
2023-02-02T19:05:02.697Z,6.40
2023-02-02T19:07:48.101Z,6.22
2023-02-02T19:10:17.137Z,6.22
2023-02-02T19:13:03.225Z,5.13
2023-02-02T19:15:37.005Z,6.75
2023-02-02T19:18:12.969Z,5.50
2023-02-02T19:20:39.884Z,5.50
2023-02-02T19:23:13.992Z,4.43
2023-02-02T19:25:43.814Z,6.00
2023-02-02T19:28:29.616Z,6.07
2023-02-02T19:31:01.976Z,6.25
2023-02-02T19:33:40.637Z,6.65
2023-02-02T19:36:16.710Z,7.43
2023-02-02T19:38:44.022Z,7.55
2023-02-02T19:41:19.769Z,7.43
2023-02-02T19:43:54.358Z,12.85
2023-02-02T19:46:24.064Z,11.07
2023-02-02T19:49:12.283Z,17.65
2023-02-02T19:51:45.960Z,11.73
2023-02-02T19:54:27.888Z,11.82
2023-02-02T19:57:15.004Z,13.80
2023-02-02T20:02:48.588Z,13.15
2023-02-02T20:05:22.536Z,13.30
2023-02-02T20:08:01.912Z,13.65
2023-02-02T20:10:43.516Z,16.63
2023-02-02T20:13:15.809Z,13.85
2023-02-02T20:15:43.187Z,14.25
2023-02-02T20:18:29.361Z,16.33
2023-02-02T20:20:56.987Z,13.90
2023-02-02T20:23:35.945Z,18.05
2023-02-02T20:26:10.983Z,13.63
2023-02-02T20:28:44.959Z,21.52
2023-02-02T20:31:18.734Z,17.58
2023-02-02T20:33:49.771Z,22.98
2023-02-02T20:36:43.028Z,19.40
2023-02-02T20:39:42.404Z,25.15
2023-02-02T20:42:09.165Z,23.52
2023-02-02T20:44:36.228Z,26.65
2023-02-02T20:47:03.774Z,22.88
2023-02-02T20:49:31.594Z,26.70
2023-02-02T20:52:01.793Z,27.17
2023-02-02T20:54:29.176Z,32.63
2023-02-02T20:56:56.088Z,23.40
2023-02-02T20:59:22.882Z,27.13
2023-02-02T21:01:50.395Z,23.88
2023-02-02T21:06:45.024Z,21.40
2023-02-02T21:09:12.024Z,21.75
2023-02-02T21:11:38.904Z,22.90
2023-02-02T21:14:06.130Z,33.63
2023-02-02T21:16:33.418Z,22.17
2023-02-02T21:19:00.350Z,23.45
2023-02-02T21:21:27.247Z,26.77
2023-02-02T21:23:56.088Z,23.17
2023-02-02T21:26:26.966Z,32.88
2023-02-02T21:28:53.873Z,28.95
2023-02-02T21:31:20.945Z,17.48
2023-02-02T21:33:49.755Z,22.75
2023-02-02T21:36:36.034Z,20.10
2023-02-02T21:39:26.946Z,20.20
2023-02-02T21:42:15.596Z,25.05
2023-02-02T21:44:51.420Z,18.00
2023-02-02T21:47:48.317Z,17.10
2023-02-02T21:52:46.994Z,29.20
2023-02-02T21:55:53.927Z,19.00
2023-02-02T21:58:40.310Z,18.13
2023-02-02T22:01:32.633Z,16.38
2023-02-02T22:03:59.483Z,26.45
2023-02-02T22:06:32.676Z,16.85
2023-02-02T22:09:11.778Z,16.23
2023-02-02T22:11:59.105Z,16.42
2023-02-02T22:14:46.747Z,19.95
2023-02-02T22:17:25.081Z,15.70
2023-02-02T22:20:10.961Z,18.17
2023-02-02T22:22:51.250Z,15.13
2023-02-02T22:25:18.237Z,16.75
2023-02-02T22:27:54.331Z,14.43
2023-02-02T22:30:39.116Z,14.52
2023-02-02T22:33:08.550Z,15.90
2023-02-02T22:35:35.315Z,14.80
2023-02-02T22:38:02.658Z,10.45
2023-02-02T22:40:29.832Z,19.48
2023-02-02T22:42:59.176Z,22.17
2023-02-02T22:45:26.116Z,18.42
2023-02-02T22:47:53.302Z,15.05
2023-02-02T22:50:22.686Z,17.52
2023-02-02T22:52:49.559Z,15.82
2023-02-02T22:55:17.259Z,13.73
2023-02-02T22:57:44.240Z,14.20
2023-02-02T23:00:13.010Z,14.20
2023-02-02T23:02:40.643Z,14.20
2023-02-02T23:05:10.071Z,14.75
2023-02-02T23:07:37.085Z,14.63
2023-02-02T23:10:05.651Z,16.60
2023-02-02T23:12:32.565Z,12.57
2023-02-02T23:14:59.335Z,9.93
2023-02-02T23:17:26.123Z,7.95
2023-02-02T23:19:52.860Z,12.20
2023-02-02T23:22:19.634Z,10.30
2023-02-02T23:24:46.416Z,10.18
2023-02-02T23:27:13.244Z,15.10
2023-02-02T23:29:40.343Z,13.10
2023-02-02T23:32:07.271Z,14.30
2023-02-02T23:34:34.180Z,12.93
2023-02-02T23:37:00.990Z,8.85
2023-02-02T23:39:27.723Z,16.83
2023-02-02T23:41:54.500Z,15.95
2023-02-02T23:44:21.348Z,9.73
2023-02-02T23:46:49.050Z,9.85
2023-02-02T23:49:16.280Z,15.05
2023-02-02T23:51:43.427Z,12.35
2023-02-02T23:54:12.562Z,15.45
2023-02-02T23:56:40.322Z,16.30
2023-02-02T23:59:07.415Z,15.85
